Time;durP1;ratioP1;P1;durP2;ratioP2;P2;SDS_P1;SDS_P2;PMS_P1;PMS_P2;Temp;Humidity;BMP_temperature;BMP_pressure;BME280_temperature;BME280_humidity;BME280_pressure;Samples;Min_cycle;Max_cycle;Signal;HPM_P1;HPM_P2
2023/05/08 00:01:15;;;;;;;7.23;3.10;;;;;;;11.47;57.42;101014.15;125377;1086;104183;-79
2023/05/08 00:03:43;;;;;;;8.33;3.30;;;;;;;11.44;57.33;101019.28;125460;1086;104296;-79
2023/05/08 00:06:12;;;;;;;5.90;4.00;;;;;;;11.44;57.81;101030.67;125385;1086;104364;-78
2023/05/08 00:08:40;;;;;;;9.23;3.40;;;;;;;11.42;57.97;101037.61;125308;1086;104356;-78
2023/05/08 00:11:09;;;;;;;7.30;3.60;;;;;;;11.39;57.83;101034.86;125294;1086;104295;-78
2023/05/08 00:13:39;;;;;;;9.63;3.50;;;;;;;11.34;58.01;101031.13;125309;1086;104277;-78
2023/05/08 00:16:10;;;;;;;10.37;3.50;;;;;;;11.26;58.46;101035.17;125239;1086;104369;-76
2023/05/08 00:18:38;;;;;;;5.90;3.23;;;;;;;11.14;58.86;101040.80;125039;1086;104232;-78
2023/05/08 00:21:07;;;;;;;8.75;3.40;;;;;;;10.96;60.29;101038.31;125009;1086;104295;-77
2023/05/08 00:23:35;;;;;;;7.17;3.50;;;;;;;10.81;59.96;101040.27;124949;1086;104363;-77
2023/05/08 00:26:04;;;;;;;8.73;3.70;;;;;;;10.60;59.84;101046.38;124983;1086;104222;-77
2023/05/08 00:28:33;;;;;;;9.33;3.63;;;;;;;10.47;60.23;101049.28;124918;1086;104221;-77
2023/05/08 00:31:02;;;;;;;6.63;3.27;;;;;;;10.35;60.65;101045.28;125031;1086;104343;-76
2023/05/08 00:33:30;;;;;;;7.23;3.67;;;;;;;10.29;60.78;101050.22;125080;1086;104294;-77
2023/05/08 00:36:04;;;;;;;6.45;3.45;;;;;;;10.25;60.35;101048.27;124876;1086;104289;-75
2023/05/08 00:38:33;;;;;;;10.58;3.37;;;;;;;10.19;60.83;101050.61;124984;1086;104299;-76
2023/05/08 00:41:02;;;;;;;7.57;3.20;;;;;;;10.18;60.92;101049.72;125134;1086;104338;-76
2023/05/08 00:43:30;;;;;;;8.47;3.60;;;;;;;10.16;60.95;101050.47;124973;1086;104370;-77
2023/05/08 00:46:01;;;;;;;6.67;3.77;;;;;;;10.16;61.12;101055.71;124927;1086;104268;-76
2023/05/08 00:48:32;;;;;;;9.37;3.67;;;;;;;10.14;61.41;101060.00;124948;1086;104257;-77
2023/05/08 00:51:02;;;;;;;8.40;4.10;;;;;;;10.12;61.52;101059.04;125035;1086;104366;-77
2023/05/08 00:53:35;;;;;;;9.20;4.10;;;;;;;10.05;61.57;101064.00;124949;1086;104296;-77
2023/05/08 00:56:04;;;;;;;9.07;4.70;;;;;;;10.02;62.20;101066.48;124965;1086;104340;-76
2023/05/08 00:58:33;;;;;;;10.10;4.70;;;;;;;10.01;62.32;101059.42;124976;1086;104391;-78
2023/05/08 01:01:02;;;;;;;12.17;5.13;;;;;;;9.97;62.88;101054.89;124980;1086;104177;-77
2023/05/08 01:03:31;;;;;;;10.63;5.13;;;;;;;9.95;63.21;101055.62;124910;1086;104321;-77
2023/05/08 01:06:01;;;;;;;10.50;4.97;;;;;;;9.92;62.85;101063.34;124908;1086;104280;-76
2023/05/08 01:08:30;;;;;;;11.47;5.33;;;;;;;9.90;63.54;101065.89;124917;1086;104283;-76
2023/05/08 01:11:07;;;;;;;13.10;5.73;;;;;;;9.89;63.00;101064.09;125023;1086;104275;-77
2023/05/08 01:13:56;;;;;;;15.60;6.00;;;;;;;9.86;63.94;101061.32;124934;1086;104337;-77
2023/05/08 01:16:38;;;;;;;12.97;6.23;;;;;;;9.87;63.37;101065.75;124953;1086;104274;-77
2023/05/08 01:19:36;;;;;;;15.93;7.07;;;;;;;9.85;63.29;101064.79;124952;1085;104343;-77
2023/05/08 01:22:25;;;;;;;16.87;7.67;;;;;;;9.84;63.41;101056.00;125047;1086;104292;-78
2023/05/08 01:25:24;;;;;;;15.07;6.90;;;;;;;9.89;64.08;101050.98;125019;1085;104345;-77
2023/05/08 01:28:16;;;;;;;18.57;8.10;;;;;;;9.95;63.99;101047.77;124928;1086;104398;-75
2023/05/08 01:31:07;;;;;;;16.27;7.73;;;;;;;9.94;64.07;101049.50;124964;1085;104703;-77
2023/05/08 01:33:45;;;;;;;14.43;6.20;;;;;;;9.89;65.82;101036.17;124883;1086;104497;-77
2023/05/08 01:36:23;;;;;;;17.20;8.00;;;;;;;9.84;65.18;101044.63;124965;1086;104305;-77
2023/05/08 01:39:04;;;;;;;15.40;7.43;;;;;;;9.87;64.89;101045.67;124976;1086;104360;-75
2023/05/08 01:41:36;;;;;;;14.90;6.77;;;;;;;9.94;64.86;101048.58;124962;1086;104363;-76
2023/05/08 01:44:12;;;;;;;14.10;6.73;;;;;;;9.96;65.97;101039.97;124959;1086;104222;-77
2023/05/08 01:46:44;;;;;;;12.83;6.97;;;;;;;9.89;66.13;101037.88;124745;1086;104877;-74
2023/05/08 01:49:21;;;;;;;13.47;6.33;;;;;;;9.89;65.99;101041.42;124929;1086;104206;-75
2023/05/08 01:51:58;;;;;;;14.50;6.50;;;;;;;9.95;65.30;101050.38;124945;1086;104363;-75
2023/05/08 01:54:33;;;;;;;14.80;6.80;;;;;;;9.97;65.32;101047.02;125108;1086;104280;-75
2023/05/08 01:57:03;;;;;;;17.00;8.07;;;;;;;9.98;65.90;101048.80;125096;1086;104212;-76
2023/05/08 01:59:34;;;;;;;16.13;7.73;;;;;;;10.00;65.38;101054.11;125008;1086;104284;-75
2023/05/08 02:02:06;;;;;;;17.70;7.77;;;;;;;10.03;65.44;101049.01;124881;1086;104644;-77
2023/05/08 02:04:35;;;;;;;16.90;7.87;;;;;;;10.05;65.50;101050.89;124957;1086;104302;-76
2023/05/08 02:07:07;;;;;;;13.30;6.90;;;;;;;10.07;65.66;101043.09;124937;1086;104289;-75
2023/05/08 02:09:37;;;;;;;19.07;7.87;;;;;;;10.01;66.20;101041.07;124862;1086;104786;-75
2023/05/08 02:12:07;;;;;;;15.60;7.45;;;;;;;9.93;66.67;101045.07;124969;1086;104388;-75
2023/05/08 02:14:37;;;;;;;13.33;6.53;;;;;;;9.90;66.77;101039.68;125223;1086;104234;-76
2023/05/08 02:17:08;;;;;;;14.00;6.60;;;;;;;9.89;66.46;101037.88;125067;1086;104342;-75
2023/05/08 02:19:40;;;;;;;16.07;6.40;;;;;;;9.92;66.52;101030.16;124887;1086;104379;-76
2023/05/08 02:22:10;;;;;;;14.83;6.63;;;;;;;9.94;66.71;101033.77;125105;1086;104178;-77
2023/05/08 02:24:39;;;;;;;13.20;6.00;;;;;;;9.92;67.17;101039.75;125394;1085;104420;-76
2023/05/08 02:27:09;;;;;;;14.70;6.47;;;;;;;9.92;66.63;101043.27;125284;1086;104338;-75
2023/05/08 02:29:39;;;;;;;13.07;6.47;;;;;;;9.97;67.35;101043.48;125106;1086;104292;-75
2023/05/08 02:32:09;;;;;;;13.77;6.23;;;;;;;10.00;67.52;101049.78;125283;1086;104504;-76
2023/05/08 02:34:39;;;;;;;13.93;6.37;;;;;;;9.99;67.41;101049.72;125178;1086;104363;-75
2023/05/08 02:37:09;;;;;;;11.80;6.27;;;;;;;10.04;67.26;101058.68;125145;1086;104331;-75
2023/05/08 02:39:41;;;;;;;11.97;6.00;;;;;;;10.09;67.91;101059.78;124833;1086;104280;-75
2023/05/08 02:42:09;;;;;;;11.17;5.67;;;;;;;10.10;67.49;101048.48;124989;1086;104363;-76
2023/05/08 02:44:38;;;;;;;12.73;5.77;;;;;;;10.09;67.39;101059.78;125047;1086;104360;-76
2023/05/08 02:47:16;;;;;;;13.07;6.23;;;;;;;10.10;68.05;101045.86;124991;1086;104636;-75
2023/05/08 02:49:51;;;;;;;11.50;5.85;;;;;;;10.10;67.84;101053.73;124938;1086;104325;-75
2023/05/08 02:52:27;;;;;;;13.30;5.97;;;;;;;10.13;68.31;101056.48;125020;1086;104289;-74
2023/05/08 02:55:00;;;;;;;12.75;5.90;;;;;;;10.14;67.69;101055.64;124746;1086;104639;-74
2023/05/08 02:57:37;;;;;;;8.93;5.03;;;;;;;10.16;68.55;101055.71;124898;1086;104345;-75
2023/05/08 03:00:15;;;;;;;12.50;5.55;;;;;;;10.17;68.45;101047.03;124821;1086;106115;-76
2023/05/08 03:02:59;;;;;;;10.93;5.83;;;;;;;10.17;68.45;101052.27;124807;1086;104244;-75
2023/05/08 03:05:32;;;;;;;15.10;5.25;;;;;;;10.11;68.24;101054.61;125160;1086;104357;-76
2023/05/08 03:08:04;;;;;;;12.03;5.17;;;;;;;10.12;68.64;101059.92;124988;1086;104286;-76
2023/05/08 03:10:34;;;;;;;9.93;5.27;;;;;;;10.14;68.28;101060.00;125105;1086;104369;-74
2023/05/08 03:13:07;;;;;;;11.93;5.83;;;;;;;10.15;68.18;101059.19;125076;1086;104232;-76
2023/05/08 03:15:44;;;;;;;12.25;5.37;;;;;;;10.16;68.25;101063.58;124991;1086;104232;-75
2023/05/08 03:18:17;;;;;;;13.50;5.10;;;;;;;10.11;68.49;101065.09;124952;1086;104447;-75
2023/05/08 03:20:52;;;;;;;9.87;5.23;;;;;;;10.04;68.67;101059.56;125042;1085;104155;-75
2023/05/08 03:23:23;;;;;;;12.47;5.40;;;;;;;10.10;69.01;101065.91;124949;1086;104385;-77
2023/05/08 03:25:52;;;;;;;12.90;6.00;;;;;;;10.13;69.10;101060.81;125025;1086;104350;-77
2023/05/08 03:28:22;;;;;;;10.53;5.00;;;;;;;10.13;68.71;101064.36;125164;1085;104231;-76
2023/05/08 03:30:52;;;;;;;11.10;4.97;;;;;;;10.09;68.88;101065.03;124934;1086;104685;-76
2023/05/08 03:33:22;;;;;;;10.00;4.80;;;;;;;9.97;69.23;101056.59;125122;1086;104277;-78
2023/05/08 03:35:53;;;;;;;10.93;4.40;;;;;;;9.86;69.25;101063.94;125110;1086;104404;-77
2023/05/08 03:38:22;;;;;;;11.90;5.00;;;;;;;9.82;69.36;101065.53;125277;1086;104161;-76
2023/05/08 03:40:50;;;;;;;8.67;4.47;;;;;;;9.87;69.11;101073.61;125044;1086;104283;-76
2023/05/08 03:43:20;;;;;;;9.77;4.90;;;;;;;9.88;68.89;101070.18;125000;1086;104341;-76
2023/05/08 03:45:50;;;;;;;10.87;4.70;;;;;;;9.88;70.23;101060.58;124990;1086;104376;-77
2023/05/08 03:48:21;;;;;;;8.10;4.60;;;;;;;9.89;69.27;101061.47;124933;1086;104389;-76
2023/05/08 03:50:50;;;;;;;9.40;4.67;;;;;;;9.93;69.12;101068.66;125028;1086;104251;-76
2023/05/08 03:53:19;;;;;;;9.33;4.50;;;;;;;9.95;70.03;101074.87;125010;1085;104260;-77
2023/05/08 03:55:48;;;;;;;12.57;5.33;;;;;;;9.96;69.91;101074.05;124899;1086;104242;-75
2023/05/08 03:58:25;;;;;;;11.30;4.90;;;;;;;9.93;70.62;101073.91;124922;1086;104337;-75
2023/05/08 04:01:05;;;;;;;10.70;4.80;;;;;;;9.91;69.98;101070.33;125107;1086;104328;-77
2023/05/08 04:03:46;;;;;;;12.90;5.13;;;;;;;9.90;70.13;101074.64;125097;1086;104321;-77
2023/05/08 04:06:27;;;;;;;13.80;6.20;;;;;;;9.96;70.78;101074.05;125172;1085;104726;-76
2023/05/08 04:09:03;;;;;;;13.00;5.00;;;;;;;10.02;70.11;101079.58;124955;1086;104315;-76
2023/05/08 04:11:40;;;;;;;10.17;4.77;;;;;;;10.03;70.23;101077.85;125253;1086;104286;-77
2023/05/08 04:14:18;;;;;;;11.70;5.10;;;;;;;10.04;70.92;101082.28;125194;1086;104645;-77
2023/05/08 04:16:50;;;;;;;12.43;4.90;;;;;;;10.10;70.20;101089.52;125300;1086;104369;-78
2023/05/08 04:19:23;;;;;;;8.70;4.95;;;;;;;10.15;70.43;101085.41;125239;1086;104225;-78
2023/05/08 04:21:57;;;;;;;11.10;5.35;;;;;;;10.22;70.98;101072.66;125278;1086;104283;-79
2023/05/08 04:24:30;;;;;;;10.50;5.00;;;;;;;10.21;71.17;101051.60;125062;1086;104404;-78
2023/05/08 04:26:59;;;;;;;10.33;5.30;;;;;;;10.33;71.00;101064.39;125175;1086;104373;-78
2023/05/08 04:29:29;;;;;;;11.43;5.30;;;;;;;10.38;71.27;101073.39;125388;1086;104286;-78
2023/05/08 04:31:59;;;;;;;12.37;4.83;;;;;;;10.41;71.71;101063.92;125176;1086;104236;-80
2023/05/08 04:34:29;;;;;;;11.87;5.07;;;;;;;10.47;71.60;101062.40;125525;1086;104229;-80
2023/05/08 04:36:58;;;;;;;10.27;5.23;;;;;;;10.48;71.06;101056.33;125461;1086;104349;-81
2023/05/08 04:39:27;;;;;;;12.27;5.33;;;;;;;10.48;71.57;101065.09;125511;1086;104443;-82
2023/05/08 04:42:01;;;;;;;16.03;5.93;;;;;;;10.55;71.86;101069.80;125421;1086;104321;-80
2023/05/08 04:44:31;;;;;;;13.35;5.60;;;;;;;10.57;71.58;101062.00;125448;1086;104194;-79
2023/05/08 04:46:59;;;;;;;9.05;4.65;;;;;;;10.60;71.48;101070.00;125573;1086;104293;-82
2023/05/08 04:49:28;;;;;;;11.37;4.90;;;;;;;10.59;71.51;101074.33;125686;1086;104679;-81
2023/05/08 04:51:56;;;;;;;14.83;5.27;;;;;;;10.59;71.69;101070.82;125611;1086;104730;-81
2023/05/08 04:54:25;;;;;;;9.33;4.97;;;;;;;10.58;71.22;101071.64;125589;1086;104341;-80
2023/05/08 04:56:53;;;;;;;9.77;5.40;;;;;;;10.65;71.92;101073.72;125436;1086;104280;-79
2023/05/08 04:59:23;;;;;;;11.03;5.17;;;;;;;10.73;71.82;101069.70;125512;1086;104283;-79
2023/05/08 05:01:52;;;;;;;10.70;5.30;;;;;;;10.81;71.80;101071.77;125383;1086;104293;-81
2023/05/08 05:04:21;;;;;;;10.63;5.60;;;;;;;10.82;71.33;101076.20;125480;1086;104391;-80
2023/05/08 05:06:50;;;;;;;10.27;5.53;;;;;;;10.81;71.61;101079.66;125365;1086;104418;-79
2023/05/08 05:09:18;;;;;;;14.80;6.60;;;;;;;10.84;71.21;101079.78;125386;1086;104274;-81
2023/05/08 05:11:47;;;;;;;12.37;6.50;;;;;;;10.86;71.27;101072.86;125268;1086;104311;-80
2023/05/08 05:14:16;;;;;;;13.50;6.50;;;;;;;10.89;71.44;101065.13;125344;1086;117900;-80
2023/05/08 05:16:45;;;;;;;14.17;6.67;;;;;;;10.94;71.47;101060.99;125336;1086;104292;-79
2023/05/08 05:19:13;;;;;;;16.20;7.20;;;;;;;11.05;71.41;101066.70;125345;1086;104681;-80
2023/05/08 05:21:42;;;;;;;16.47;7.30;;;;;;;11.13;72.23;101068.80;125508;1086;104421;-78
2023/05/08 05:24:11;;;;;;;12.77;6.00;;;;;;;11.22;72.21;101068.31;125374;1086;104403;-80
2023/05/08 05:26:39;;;;;;;10.83;5.23;;;;;;;11.29;72.02;101078.22;125610;1086;104152;-79
2023/05/08 05:29:09;;;;;;;11.33;5.23;;;;;;;11.37;71.92;101077.66;125413;1086;104382;-80
2023/05/08 05:31:37;;;;;;;12.57;5.10;;;;;;;11.41;71.49;101077.85;125538;1086;104233;-80
2023/05/08 05:34:06;;;;;;;8.27;4.80;;;;;;;11.43;71.51;101077.91;125332;1086;104267;-79
2023/05/08 05:36:35;;;;;;;9.77;5.30;;;;;;;11.40;71.88;101085.67;125569;1086;104264;-80
2023/05/08 05:39:04;;;;;;;14.20;7.47;;;;;;;11.33;71.81;101087.16;125384;1086;104395;-80
2023/05/08 05:41:35;;;;;;;13.23;6.53;;;;;;;11.29;71.91;101090.47;125570;1086;104341;-82
2023/05/08 05:44:04;;;;;;;18.13;8.87;;;;;;;11.22;72.06;101091.95;125446;1086;104280;-80
2023/05/08 05:46:33;;;;;;;17.63;8.47;;;;;;;11.21;72.07;101097.14;125423;1086;104284;-83
2023/05/08 05:49:03;;;;;;;17.10;8.10;;;;;;;11.20;71.88;101096.22;125456;1086;104257;-80
2023/05/08 05:51:34;;;;;;;15.63;7.03;;;;;;;11.20;71.91;101092.70;125472;1086;104331;-79
2023/05/08 05:54:03;;;;;;;15.30;6.37;;;;;;;11.18;71.77;101091.75;125336;1086;104402;-80
2023/05/08 05:56:31;;;;;;;14.47;5.63;;;;;;;11.15;71.85;101095.14;125768;1086;104264;-81
2023/05/08 05:59:00;;;;;;;10.80;5.27;;;;;;;11.10;71.99;101097.56;125775;1086;104369;-81
2023/05/08 06:01:29;;;;;;;11.60;5.53;;;;;;;11.06;71.86;101106.13;125832;1086;104225;-79
2023/05/08 06:03:57;;;;;;;10.13;5.20;;;;;;;11.06;71.79;101103.50;125622;1086;104373;-78
2023/05/08 06:06:26;;;;;;;9.47;5.07;;;;;;;11.04;71.41;101099.92;125333;1086;104421;-78
2023/05/08 06:08:55;;;;;;;9.67;4.40;;;;;;;10.99;71.58;101114.59;125495;1086;104187;-80
2023/05/08 06:11:24;;;;;;;10.77;4.60;;;;;;;10.95;70.79;101110.03;125395;1086;104233;-79
2023/05/08 06:13:53;;;;;;;8.77;4.07;;;;;;;10.91;70.88;101118.63;125325;1086;104364;-79
2023/05/08 06:16:23;;;;;;;10.37;4.43;;;;;;;10.86;70.81;101122.75;125164;1086;104314;-77
2023/05/08 06:18:52;;;;;;;11.13;4.83;;;;;;;10.81;71.12;101121.66;125308;1086;104382;-77
2023/05/08 06:21:21;;;;;;;9.67;4.10;;;;;;;10.76;70.64;101124.95;125408;1086;104231;-79
2023/05/08 06:23:49;;;;;;;9.00;4.40;;;;;;;10.77;70.71;101121.52;125471;1086;104287;-79
2023/05/08 06:26:18;;;;;;;9.55;4.80;;;;;;;10.74;71.41;101124.00;125434;1086;104235;-79
2023/05/08 06:28:46;;;;;;;9.53;4.33;;;;;;;10.77;71.01;101123.25;125501;1086;104244;-77
2023/05/08 06:31:15;;;;;;;9.80;4.50;;;;;;;10.84;71.48;101124.42;125497;1086;104346;-78
2023/05/08 06:33:43;;;;;;;10.60;4.40;;;;;;;10.84;71.18;101127.93;125216;1086;104299;-77
2023/05/08 06:36:12;;;;;;;8.23;4.77;;;;;;;10.85;70.89;101129.73;125450;1085;104235;-77
2023/05/08 06:38:41;;;;;;;9.60;4.70;;;;;;;10.84;71.06;101125.30;125375;1086;104484;-77
2023/05/08 06:41:10;;;;;;;9.03;4.37;;;;;;;10.85;71.13;101131.47;125508;1086;104334;-78
2023/05/08 06:43:39;;;;;;;8.07;4.20;;;;;;;10.86;71.21;101139.42;125487;1086;104402;-78
2023/05/08 06:46:07;;;;;;;10.83;4.53;;;;;;;10.91;70.98;101134.38;125771;1086;104235;-75
2023/05/08 06:48:36;;;;;;;9.87;4.43;;;;;;;10.95;71.12;101142.45;125584;1086;104343;-77
2023/05/08 06:51:05;;;;;;;8.53;4.13;;;;;;;10.94;71.37;101148.53;125551;1086;104235;-76
2023/05/08 06:53:33;;;;;;;10.33;4.20;;;;;;;10.96;71.64;101148.59;125394;1086;104222;-75
2023/05/08 06:56:01;;;;;;;10.90;4.23;;;;;;;10.93;71.60;101154.59;125222;1086;104312;-76
2023/05/08 06:58:31;;;;;;;10.90;4.40;;;;;;;10.89;71.31;101160.56;125205;1086;104385;-77
2023/05/08 07:01:00;;;;;;;8.67;4.20;;;;;;;10.85;71.64;101161.24;126306;1086;104293;-76
2023/05/08 07:03:29;;;;;;;10.20;4.43;;;;;;;10.81;71.08;101168.91;125369;1086;104328;-76
2023/05/08 07:05:57;;;;;;;8.30;4.00;;;;;;;10.79;71.78;101164.48;125068;1086;105582;-76
2023/05/08 07:08:28;;;;;;;10.63;4.20;;;;;;;10.80;71.69;101175.90;125135;1086;104391;-75
2023/05/08 07:10:57;;;;;;;14.17;4.43;;;;;;;10.83;71.37;101180.37;125084;1086;104255;-75
2023/05/08 07:13:26;;;;;;;13.00;4.80;;;;;;;10.85;71.34;101182.25;125090;1086;104325;-77
2023/05/08 07:15:54;;;;;;;11.20;4.43;;;;;;;10.88;71.32;101182.38;125103;1086;104213;-77
2023/05/08 07:18:23;;;;;;;11.97;4.80;;;;;;;10.88;71.72;101184.12;125227;1086;104363;-77
2023/05/08 07:20:51;;;;;;;15.27;5.23;;;;;;;10.91;71.64;101185.15;125229;1086;104337;-76
2023/05/08 07:23:20;;;;;;;11.57;4.87;;;;;;;10.97;71.90;101187.16;125189;1086;104414;-78
2023/05/08 07:25:49;;;;;;;9.67;5.03;;;;;;;11.02;71.77;101193.52;125350;1086;104271;-77
2023/05/08 07:28:17;;;;;;;9.43;4.70;;;;;;;11.05;71.91;101196.28;125257;1086;104385;-78
2023/05/08 07:30:49;;;;;;;12.73;5.40;;;;;;;11.11;72.23;101200.88;125166;1086;104271;-78
2023/05/08 07:33:17;;;;;;;13.30;5.50;;;;;;;11.17;72.08;101202.90;125228;1086;104369;-77
2023/05/08 07:35:46;;;;;;;11.77;5.00;;;;;;;11.20;72.07;101209.17;125337;1086;104161;-78
2023/05/08 07:38:15;;;;;;;10.23;4.73;;;;;;;11.20;72.74;101201.30;125214;1086;104228;-76
2023/05/08 07:40:44;;;;;;;11.77;4.57;;;;;;;11.20;72.55;101208.29;125169;1086;104717;-76
2023/05/08 07:43:13;;;;;;;10.53;4.70;;;;;;;11.22;73.00;101215.42;125017;1086;104293;-76
2023/05/08 07:45:42;;;;;;;12.10;5.20;;;;;;;11.26;72.70;101205.94;125060;1086;104460;-77
2023/05/08 07:48:11;;;;;;;9.07;4.47;;;;;;;11.32;72.95;101208.84;124919;1086;104356;-76
2023/05/08 07:50:39;;;;;;;10.77;4.77;;;;;;;11.31;73.24;101210.58;125153;1086;104278;-75
2023/05/08 07:53:08;;;;;;;12.37;4.13;;;;;;;11.33;72.60;101213.27;125001;1086;104232;-75
2023/05/08 07:55:36;;;;;;;8.53;4.50;;;;;;;11.31;72.70;101204.40;125054;1086;104260;-76
2023/05/08 07:58:05;;;;;;;10.37;5.17;;;;;;;11.35;72.94;101208.97;125220;1086;104296;-77
2023/05/08 08:00:35;;;;;;;13.53;5.03;;;;;;;11.42;73.08;101215.38;125252;1086;104294;-75
2023/05/08 08:03:06;;;;;;;12.13;4.67;;;;;;;11.46;72.84;101215.58;125200;1086;104228;-76
2023/05/08 08:05:34;;;;;;;14.93;5.90;;;;;;;11.48;73.26;101221.83;125233;1086;104283;-75
2023/05/08 08:08:03;;;;;;;13.33;5.17;;;;;;;11.46;72.73;101225.20;125162;1086;104273;-74
2023/05/08 08:10:32;;;;;;;13.60;4.97;;;;;;;11.41;72.47;101221.48;125331;1086;104296;-77
2023/05/08 08:13:01;;;;;;;10.73;5.00;;;;;;;11.39;72.98;101221.42;125326;1086;104337;-76
2023/05/08 08:15:29;;;;;;;10.27;4.53;;;;;;;11.35;72.75;101226.48;124976;1086;104242;-76
2023/05/08 08:17:58;;;;;;;9.80;4.70;;;;;;;11.29;72.49;101222.72;125018;1086;104324;-77
2023/05/08 08:20:26;;;;;;;12.97;5.20;;;;;;;11.31;72.96;101222.79;125663;1086;104359;-80
2023/05/08 08:22:55;;;;;;;12.67;5.57;;;;;;;11.34;73.13;101225.55;125412;1086;104238;-77
2023/05/08 08:25:27;;;;;;;12.37;5.17;;;;;;;11.37;74.46;101233.57;125555;1086;104241;-79
2023/05/08 08:27:57;;;;;;;12.63;5.20;;;;;;;11.33;73.13;101221.16;125361;1086;111952;-78
2023/05/08 08:30:26;;;;;;;11.63;5.20;;;;;;;11.29;73.39;101232.34;125292;1086;104219;-77
2023/05/08 08:32:54;;;;;;;11.40;4.87;;;;;;;11.24;73.18;101233.87;125295;1086;104338;-76
2023/05/08 08:35:28;;;;;;;12.93;4.97;;;;;;;11.20;73.44;101221.42;125379;1086;104219;-79
2023/05/08 08:37:56;;;;;;;13.30;5.30;;;;;;;11.20;73.91;101230.19;125443;1086;104225;-76
2023/05/08 08:40:25;;;;;;;14.83;5.57;;;;;;;11.15;74.01;101231.73;125148;1086;104271;-78
2023/05/08 08:42:54;;;;;;;13.00;5.30;;;;;;;11.12;73.62;101229.84;125636;1086;104202;-76
2023/05/08 08:45:23;;;;;;;16.83;5.30;;;;;;;11.14;73.65;101229.91;125205;1085;104334;-77
2023/05/08 08:47:53;;;;;;;14.37;5.67;;;;;;;11.15;74.71;101234.35;125401;1086;104488;-79
2023/05/08 08:50:25;;;;;;;12.00;5.50;;;;;;;11.08;74.45;101233.19;125367;1086;104238;-76
2023/05/08 08:53:00;;;;;;;13.97;5.80;;;;;;;11.02;74.59;101235.53;125087;1086;104231;-78
2023/05/08 08:55:30;;;;;;;15.50;5.83;;;;;;;11.03;74.13;101234.72;124881;1086;104235;-75
2023/05/08 08:58:06;;;;;;;14.33;5.60;;;;;;;11.06;74.08;101232.19;125158;1086;104345;-77
2023/05/08 09:00:37;;;;;;;17.90;6.20;;;;;;;11.07;74.78;101234.00;125040;1086;104332;-76
2023/05/08 09:03:06;;;;;;;12.97;5.70;;;;;;;11.02;74.27;101225.03;125097;1086;104253;-77
2023/05/08 09:05:35;;;;;;;16.33;6.10;;;;;;;11.01;74.64;101217.97;125382;1085;104184;-76
2023/05/08 09:08:04;;;;;;;14.40;5.70;;;;;;;11.06;73.73;101226.05;125368;1086;104251;-77
2023/05/08 09:10:35;;;;;;;14.45;6.10;;;;;;;11.09;73.94;101229.70;125234;1086;104396;-79
2023/05/08 09:13:04;;;;;;;12.60;5.43;;;;;;;11.10;73.76;101228.00;125392;1086;104363;-76
2023/05/08 09:15:33;;;;;;;16.65;5.70;;;;;;;11.14;73.95;101241.34;125215;1086;104287;-78
2023/05/08 09:18:02;;;;;;;14.23;5.97;;;;;;;11.18;74.26;101233.60;125205;1086;104231;-76
2023/05/08 09:20:30;;;;;;;16.10;6.13;;;;;;;11.21;73.85;101234.63;125250;1086;104328;-77
2023/05/08 09:23:01;;;;;;;12.23;5.17;;;;;;;11.24;74.09;101233.87;125213;1086;104359;-79
2023/05/08 09:25:42;;;;;;;14.23;5.80;;;;;;;11.23;74.12;101234.70;125294;1086;104231;-78
2023/05/08 09:28:18;;;;;;;13.30;5.70;;;;;;;11.22;73.79;101239.06;125558;1086;104226;-76
2023/05/08 09:30:51;;;;;;;16.33;5.47;;;;;;;11.21;73.70;101238.99;125596;1086;104312;-75
2023/05/08 09:33:20;;;;;;;11.77;5.10;;;;;;;11.23;73.71;101246.09;125450;1086;104232;-76
2023/05/08 09:35:48;;;;;;;14.43;5.27;;;;;;;11.28;73.83;101251.55;125534;1084;104229;-77
2023/05/08 09:38:37;;;;;;;11.30;5.43;;;;;;;11.31;74.39;101251.69;125359;1086;104398;-76
2023/05/08 09:41:10;;;;;;;10.63;5.10;;;;;;;11.35;73.99;101256.27;125436;1086;104457;-76
2023/05/08 09:43:39;;;;;;;11.57;5.22;;;;;;;11.29;73.48;101249.00;125749;1086;104225;-77
2023/05/08 09:46:25;;;;;;;11.03;4.97;;;;;;;11.28;73.68;101247.22;125556;1086;104238;-78
2023/05/08 09:48:54;;;;;;;15.80;5.30;;;;;;;11.31;73.87;101246.44;125686;1086;104242;-79
2023/05/08 09:51:24;;;;;;;14.17;5.20;;;;;;;11.31;73.52;101252.61;125727;1086;104354;-79
2023/05/08 09:53:54;;;;;;;14.20;5.80;;;;;;;11.32;73.87;101251.77;125675;1086;104289;-79
2023/05/08 09:56:36;;;;;;;13.30;5.27;;;;;;;11.35;73.70;101258.01;125500;1086;104273;-80
2023/05/08 09:59:21;;;;;;;14.05;5.60;;;;;;;11.35;74.39;101252.75;125458;1086;104494;-77
2023/05/08 10:01:49;;;;;;;13.83;5.93;;;;;;;11.37;73.93;101244.08;125236;1086;104341;-76
2023/05/08 10:04:30;;;;;;;15.73;5.50;;;;;;;11.43;74.38;101246.09;125604;1086;104440;-77
2023/05/08 10:06:59;;;;;;;16.03;5.67;;;;;;;11.43;73.84;101252.23;125432;1086;104290;-79
2023/05/08 10:09:27;;;;;;;13.73;5.27;;;;;;;11.42;73.62;101239.95;125835;1086;104235;-78
2023/05/08 10:11:56;;;;;;;12.03;5.57;;;;;;;11.41;73.52;101240.77;125854;1086;104234;-77
2023/05/08 10:14:25;;;;;;;13.23;5.70;;;;;;;11.43;73.36;101239.09;125873;1086;104289;-78
2023/05/08 10:16:54;;;;;;;12.43;5.53;;;;;;;11.44;73.04;101240.91;126073;1086;104287;-77
2023/05/08 10:19:27;;;;;;;15.07;5.37;;;;;;;11.48;73.07;101232.34;125788;1086;104398;-78
2023/05/08 10:21:57;;;;;;;14.90;5.50;;;;;;;11.50;72.99;101238.55;125970;1085;104340;-79
2023/05/08 10:24:32;;;;;;;12.17;5.10;;;;;;;11.57;73.26;101238.81;125690;1086;104152;-79
2023/05/08 10:27:09;;;;;;;12.93;5.50;;;;;;;11.61;73.08;101238.09;125753;1086;104253;-80
2023/05/08 10:29:51;;;;;;;15.83;6.43;;;;;;;11.72;73.00;101239.48;125498;1086;104313;-78
2023/05/08 10:32:22;;;;;;;11.77;5.53;;;;;;;11.78;72.55;101250.27;125506;1086;104280;-78
2023/05/08 10:34:55;;;;;;;13.57;5.90;;;;;;;11.86;72.91;101253.22;125481;1086;104366;-78
2023/05/08 10:37:24;;;;;;;14.23;5.33;;;;;;;11.92;72.88;101245.62;125525;1086;104366;-78
2023/05/08 10:39:54;;;;;;;11.63;5.70;;;;;;;11.92;71.85;101239.41;125688;1086;104364;-77
2023/05/08 10:42:23;;;;;;;14.83;5.77;;;;;;;11.98;72.55;101239.70;125532;1085;104232;-78
2023/05/08 10:44:52;;;;;;;13.30;5.80;;;;;;;12.00;72.21;101241.58;125547;1085;104231;-80
2023/05/08 10:47:28;;;;;;;15.50;5.50;;;;;;;12.01;72.42;101237.20;125428;1085;104280;-78
2023/05/08 10:50:05;;;;;;;12.03;4.93;;;;;;;12.01;71.77;101240.75;125473;1086;104231;-77
2023/05/08 10:52:38;;;;;;;15.60;6.17;;;;;;;12.00;71.85;101231.05;125518;1086;104262;-78
2023/05/08 10:55:24;;;;;;;14.20;5.58;;;;;;;11.99;71.90;101234.50;125622;1086;104283;-77
2023/05/08 10:58:14;;;;;;;16.07;5.60;;;;;;;12.03;71.65;101235.55;125481;1085;104343;-76
2023/05/08 11:01:16;;;;;;;16.33;5.50;;;;;;;12.04;71.82;101237.33;125429;1086;104296;-77
2023/05/08 11:03:47;;;;;;;15.73;5.90;;;;;;;12.14;72.09;101233.33;125580;1089;104412;-79
2023/05/08 11:06:16;;;;;;;15.13;5.70;;;;;;;12.25;72.07;101226.80;125487;1086;104254;-78
2023/05/08 11:08:47;;;;;;;14.23;5.63;;;;;;;12.39;71.63;101224.72;125500;1086;104376;-77
2023/05/08 11:11:27;;;;;;;14.13;5.63;;;;;;;12.45;70.54;101224.05;125445;1086;104263;-77
2023/05/08 11:14:08;;;;;;;11.07;5.00;;;;;;;12.42;68.94;101219.58;125440;1086;104229;-78
2023/05/08 11:17:08;;;;;;;11.97;5.50;;;;;;;12.44;70.26;101224.91;125413;1086;105125;-78
2023/05/08 11:19:38;;;;;;;13.50;5.30;;;;;;;12.47;69.38;101223.28;125274;1086;104412;-78
2023/05/08 11:22:22;;;;;;;11.70;5.20;;;;;;;12.48;69.42;101227.72;125436;1086;104369;-77
2023/05/08 11:24:56;;;;;;;13.38;5.17;;;;;;;12.46;67.98;101232.01;125341;1086;104287;-78